createdAt,value
2019-05-11T00:00:54.733Z,64.92
2019-05-11T00:01:54.731Z,64.81
2019-05-11T00:02:54.719Z,65.33
2019-05-11T00:03:54.761Z,65.22
2019-05-11T00:04:54.720Z,65.43
2019-05-11T00:05:54.682Z,65.36
2019-05-11T00:06:54.735Z,64.81
2019-05-11T00:07:54.738Z,65.25
2019-05-11T00:08:54.721Z,65.36
2019-05-11T00:09:58.252Z,65.16
2019-05-11T00:10:54.684Z,65.05
2019-05-11T00:11:54.717Z,65.46
2019-05-11T00:12:54.682Z,65.16
2019-05-11T00:13:54.649Z,65.56
2019-05-11T00:14:54.718Z,65.56
2019-05-11T00:15:54.656Z,65.56
2019-05-11T00:16:54.803Z,66.20
2019-05-11T00:17:54.713Z,66.00
2019-05-11T00:18:54.605Z,66.00
2019-05-11T00:19:54.594Z,66.91
2019-05-11T00:20:54.656Z,66.61
2019-05-11T00:21:54.602Z,66.61
2019-05-11T00:22:54.567Z,66.71
2019-05-11T00:23:54.547Z,66.00
2019-05-11T00:24:54.604Z,66.71
2019-05-11T00:25:54.531Z,66.71
2019-05-11T00:26:54.503Z,66.71
2019-05-11T00:27:54.501Z,66.71
2019-05-11T00:28:54.515Z,66.82
2019-05-11T00:29:54.557Z,66.50
2019-05-11T00:30:54.545Z,66.41
2019-05-11T00:31:54.452Z,66.41
2019-05-11T00:32:54.440Z,66.30
2019-05-11T00:33:54.447Z,66.20
2019-05-11T00:34:54.433Z,66.41
2019-05-11T00:35:54.463Z,66.41
2019-05-11T00:36:54.406Z,66.30
2019-05-11T00:37:54.402Z,66.54
2019-05-11T00:38:54.391Z,66.74
2019-05-11T00:39:54.395Z,66.54
2019-05-11T00:40:54.432Z,66.74
2019-05-11T00:41:54.373Z,66.71
2019-05-11T00:42:54.348Z,66.54
2019-05-11T00:43:54.348Z,66.71
2019-05-11T00:44:54.305Z,66.94
2019-05-11T00:45:54.344Z,66.44
2019-05-11T00:46:54.293Z,66.64
2019-05-11T00:47:54.326Z,66.64
2019-05-11T00:48:54.297Z,66.74
2019-05-11T00:49:54.265Z,66.64
2019-05-11T00:50:54.318Z,66.74
2019-05-11T00:51:54.245Z,66.94
2019-05-11T00:52:54.266Z,66.71
2019-05-11T00:53:54.204Z,66.64
2019-05-11T00:54:54.190Z,66.54
2019-05-11T00:55:54.266Z,66.71
2019-05-11T00:56:54.165Z,66.54
2019-05-11T00:58:02.729Z,66.54
2019-05-11T00:58:54.121Z,66.71
2019-05-11T00:59:54.111Z,66.54
2019-05-11T01:00:54.134Z,66.41
2019-05-11T01:01:54.120Z,67.05
2019-05-11T01:02:54.077Z,66.64
2019-05-11T01:03:54.083Z,66.94
2019-05-11T01:04:54.080Z,66.74
2019-05-11T01:05:54.049Z,66.44
2019-05-11T01:06:54.090Z,66.41
2019-05-11T01:07:54.021Z,66.71
2019-05-11T01:08:54.018Z,66.44
2019-05-11T01:09:54.037Z,66.41
2019-05-11T01:10:54.208Z,66.61
2019-05-11T01:11:54.024Z,66.85
2019-05-11T01:12:54.687Z,66.61
2019-05-11T01:13:53.957Z,66.33
2019-05-11T01:14:53.947Z,66.33
2019-05-11T01:15:54.853Z,66.64
2019-05-11T01:16:56.794Z,66.41
2019-05-11T01:17:53.954Z,66.54
2019-05-11T01:18:53.910Z,66.71
2019-05-11T01:19:53.919Z,66.85
2019-05-11T01:20:53.892Z,66.74
2019-05-11T01:21:53.882Z,66.94
2019-05-11T01:22:53.902Z,66.74
2019-05-11T01:23:53.858Z,66.74
2019-05-11T01:24:53.850Z,66.74
2019-05-11T01:25:53.879Z,66.94
2019-05-11T01:26:53.821Z,67.15
2019-05-11T01:27:53.818Z,67.25
2019-05-11T01:28:53.821Z,67.15
2019-05-11T01:29:53.816Z,67.29
2019-05-11T01:30:53.826Z,67.59
2019-05-11T01:31:53.791Z,67.25
2019-05-11T01:32:53.764Z,67.69
2019-05-11T01:33:53.748Z,67.59
2019-05-11T01:34:53.740Z,67.69
2019-05-11T01:35:53.755Z,67.69
2019-05-11T01:36:53.721Z,67.59
2019-05-11T01:37:53.724Z,68.20
2019-05-11T01:38:53.696Z,67.90
2019-05-11T01:39:53.706Z,68.10
2019-05-11T01:40:58.842Z,67.69
2019-05-11T01:41:54.677Z,67.90
2019-05-11T01:42:53.660Z,68.20
2019-05-11T01:43:53.662Z,67.79
2019-05-11T01:44:53.639Z,68.30
2019-05-11T01:45:53.656Z,68.64
2019-05-11T01:46:53.610Z,68.30
2019-05-11T01:47:53.637Z,68.33
2019-05-11T01:48:53.592Z,68.13
2019-05-11T01:49:53.609Z,68.30
2019-05-11T01:50:53.606Z,68.61
2019-05-11T01:51:53.562Z,68.74
2019-05-11T01:52:53.548Z,68.44
2019-05-11T01:53:53.549Z,68.13
2019-05-11T01:54:53.561Z,68.64
2019-05-11T01:55:53.519Z,68.64
2019-05-11T01:56:53.523Z,68.84
2019-05-11T01:57:53.492Z,69.35
2019-05-11T01:58:53.488Z,68.64
2019-05-11T01:59:53.471Z,69.35
2019-05-11T02:00:53.506Z,69.15
2019-05-11T02:01:53.468Z,69.15
2019-05-11T02:02:53.446Z,69.15
2019-05-11T02:03:53.435Z,68.95
2019-05-11T02:04:53.424Z,69.15
2019-05-11T02:05:53.446Z,69.05
2019-05-11T02:06:53.405Z,69.46
2019-05-11T02:07:53.389Z,68.74
2019-05-11T02:08:53.384Z,68.84
2019-05-11T02:09:53.368Z,69.56
2019-05-11T02:10:53.394Z,68.95
2019-05-11T02:11:53.343Z,69.56
2019-05-11T02:12:53.354Z,69.25
2019-05-11T02:13:53.341Z,69.15
2019-05-11T02:14:53.378Z,68.84
2019-05-11T02:15:53.328Z,68.98
2019-05-11T02:16:53.334Z,69.86
2019-05-11T02:17:53.285Z,69.59
2019-05-11T02:18:53.265Z,69.49
2019-05-11T02:19:53.267Z,69.79
2019-05-11T02:20:53.249Z,69.49
2019-05-11T02:21:53.274Z,69.76
2019-05-11T02:22:53.230Z,69.90
2019-05-11T02:23:53.210Z,69.90
2019-05-11T02:24:53.205Z,69.69
2019-05-11T02:25:53.201Z,70.00
2019-05-11T02:26:53.237Z,69.59
2019-05-11T02:27:53.181Z,69.69
2019-05-11T02:28:53.163Z,69.59
2019-05-11T02:29:53.148Z,70.20
2019-05-11T02:30:53.143Z,69.90
2019-05-11T02:31:53.164Z,70.10
2019-05-11T02:32:53.125Z,69.59
2019-05-11T02:33:53.233Z,69.69
2019-05-11T02:34:53.116Z,69.79
2019-05-11T02:35:53.116Z,70.10
2019-05-11T02:36:53.400Z,70.10
2019-05-11T02:37:53.086Z,69.69
2019-05-11T02:38:53.080Z,70.00
2019-05-11T02:39:53.093Z,69.90
2019-05-11T02:40:53.038Z,69.59
2019-05-11T02:41:53.043Z,69.38
2019-05-11T02:42:53.016Z,69.69
2019-05-11T02:43:53.011Z,70.00
2019-05-11T02:44:52.994Z,70.10
2019-05-11T02:45:52.985Z,69.59
2019-05-11T02:46:53.001Z,69.79
2019-05-11T02:47:52.962Z,69.59
2019-05-11T02:48:52.951Z,69.59
2019-05-11T02:49:52.936Z,69.90
2019-05-11T02:50:52.927Z,69.49
2019-05-11T02:51:52.943Z,69.38
2019-05-11T02:52:52.906Z,69.49
2019-05-11T02:53:52.902Z,69.08
2019-05-11T02:54:52.894Z,68.98
2019-05-11T02:55:52.874Z,69.59
2019-05-11T02:56:52.952Z,69.59
2019-05-11T02:57:52.873Z,69.29
2019-05-11T02:58:52.855Z,68.98
2019-05-11T02:59:52.833Z,68.98
2019-05-11T03:00:52.824Z,69.29
2019-05-11T03:01:52.805Z,68.98
2019-05-11T03:02:52.831Z,69.38
2019-05-11T03:03:52.786Z,69.29
2019-05-11T03:04:52.773Z,69.08
2019-05-11T03:05:52.775Z,69.08
2019-05-11T03:06:52.757Z,69.29
2019-05-11T03:07:52.788Z,69.49
2019-05-11T03:08:52.745Z,69.56
2019-05-11T03:09:52.722Z,69.79
2019-05-11T03:10:52.712Z,69.79
2019-05-11T03:11:56.117Z,69.69
2019-05-11T03:12:52.750Z,69.69
2019-05-11T03:13:52.701Z,69.69
2019-05-11T03:14:52.673Z,69.29
2019-05-11T03:15:52.661Z,69.29
2019-05-11T03:16:52.676Z,69.59
2019-05-11T03:17:52.673Z,69.59
2019-05-11T03:18:52.662Z,69.69
2019-05-11T03:19:52.630Z,69.49
2019-05-11T03:20:52.607Z,69.49
2019-05-11T03:21:52.589Z,69.90
2019-05-11T03:22:52.621Z,69.66
2019-05-11T03:23:52.567Z,69.49
2019-05-11T03:24:52.564Z,69.79
2019-05-11T03:25:52.551Z,69.49
2019-05-11T03:26:52.573Z,69.38
2019-05-11T03:27:52.554Z,69.90
2019-05-11T03:28:52.516Z,69.49
2019-05-11T03:29:52.511Z,69.69
2019-05-11T03:30:52.510Z,69.69
2019-05-11T03:31:52.489Z,69.90
2019-05-11T03:32:52.507Z,69.49
2019-05-11T03:33:52.464Z,69.59
2019-05-11T03:34:52.453Z,70.10
2019-05-11T03:35:52.439Z,69.69
2019-05-11T03:36:52.433Z,69.69
2019-05-11T03:37:52.456Z,70.10
2019-05-11T03:38:52.419Z,70.20
2019-05-11T03:39:52.402Z,69.69
2019-05-11T03:40:52.403Z,69.90
2019-05-11T03:41:52.434Z,70.40
2019-05-11T03:42:53.209Z,70.72
2019-05-11T03:43:52.435Z,70.61
2019-05-11T03:44:52.411Z,70.40
2019-05-11T03:45:53.217Z,69.96
2019-05-11T03:46:52.494Z,70.07
2019-05-11T03:47:52.732Z,69.96
2019-05-11T03:48:52.390Z,70.27
2019-05-11T03:49:52.295Z,70.57
2019-05-11T03:50:52.285Z,70.68
2019-05-11T03:51:52.280Z,70.57
2019-05-11T03:52:52.505Z,70.57
2019-05-11T03:53:52.285Z,70.27
2019-05-11T03:54:52.238Z,70.27
2019-05-11T03:55:52.228Z,70.68
2019-05-11T03:56:52.223Z,70.27
2019-05-11T03:57:52.230Z,70.17
2019-05-11T03:58:52.198Z,69.35
2019-05-11T03:59:52.184Z,69.96
2019-05-11T04:00:52.174Z,69.66
2019-05-11T04:01:52.210Z,70.07
2019-05-11T04:02:52.158Z,70.04
2019-05-11T04:03:52.181Z,69.83
2019-05-11T04:04:52.421Z,70.24
2019-05-11T04:05:52.117Z,70.04
2019-05-11T04:06:52.133Z,70.07
2019-05-11T04:07:52.104Z,69.32
2019-05-11T04:08:52.216Z,69.53
2019-05-11T04:09:52.113Z,69.32
2019-05-11T04:10:52.076Z,68.81
2019-05-11T04:11:52.063Z,68.81
2019-05-11T04:12:52.053Z,69.42
2019-05-11T04:13:52.040Z,69.22
2019-05-11T04:14:52.057Z,69.12
2019-05-11T04:15:52.018Z,69.53
2019-05-11T04:16:52.041Z,69.12
2019-05-11T04:17:51.995Z,69.22
2019-05-11T04:18:52.028Z,69.22
2019-05-11T04:19:52.024Z,69.22
2019-05-11T04:20:51.970Z,69.02
2019-05-11T04:21:51.967Z,69.22
2019-05-11T04:22:51.939Z,69.22
2019-05-11T04:23:51.933Z,69.32
2019-05-11T04:24:52.038Z,69.09
2019-05-11T04:25:51.932Z,68.91
2019-05-11T04:26:51.905Z,69.19
2019-05-11T04:27:51.954Z,68.48
2019-05-11T04:28:51.879Z,68.88
2019-05-11T04:29:51.875Z,68.88
2019-05-11T04:30:51.883Z,68.48
2019-05-11T04:31:51.867Z,68.57
2019-05-11T04:32:51.834Z,68.37
2019-05-11T04:33:51.828Z,68.57
2019-05-11T04:34:51.819Z,67.46
2019-05-11T04:35:51.854Z,68.27
2019-05-11T04:36:51.809Z,67.73
2019-05-11T04:37:51.836Z,67.73
2019-05-11T04:38:51.773Z,67.86
2019-05-11T04:39:51.759Z,68.13
2019-05-11T04:40:51.749Z,67.86
2019-05-11T04:41:51.766Z,67.96
2019-05-11T04:42:55.537Z,67.76
2019-05-11T04:43:51.728Z,68.17
2019-05-11T04:44:52.571Z,67.83
2019-05-11T04:45:51.759Z,67.96
2019-05-11T04:46:51.728Z,67.96
2019-05-11T04:47:51.715Z,68.07
2019-05-11T04:48:51.670Z,67.43
2019-05-11T04:49:51.654Z,68.17
2019-05-11T04:50:51.644Z,67.86
2019-05-11T04:51:51.665Z,67.63
2019-05-11T04:52:51.622Z,67.63
2019-05-11T04:53:51.618Z,67.32
2019-05-11T04:54:51.625Z,67.43
2019-05-11T04:55:51.603Z,67.73
2019-05-11T04:56:51.626Z,67.63
2019-05-11T04:57:51.591Z,67.22
2019-05-11T04:58:51.557Z,67.52
2019-05-11T04:59:51.549Z,67.22
2019-05-11T05:00:51.553Z,67.32
2019-05-11T05:01:51.620Z,67.43
2019-05-11T05:02:51.542Z,67.12
2019-05-11T05:03:54.455Z,67.02
2019-05-11T05:04:51.496Z,66.91
2019-05-11T05:05:51.520Z,67.32
2019-05-11T05:06:59.338Z,67.32
2019-05-11T05:07:52.936Z,67.02
2019-05-11T05:08:51.457Z,67.63
2019-05-11T05:09:51.451Z,68.04
2019-05-11T05:10:52.380Z,67.32
2019-05-11T05:11:52.434Z,67.49
2019-05-11T05:12:53.292Z,66.38
2019-05-11T05:13:53.490Z,66.38
2019-05-11T05:14:51.399Z,66.58
2019-05-11T05:15:51.383Z,66.55
2019-05-11T05:16:51.379Z,66.58
2019-05-11T05:17:51.363Z,66.78
2019-05-11T05:18:51.391Z,66.78
2019-05-11T05:19:51.338Z,65.94
2019-05-11T05:20:51.332Z,65.94
2019-05-11T05:21:51.316Z,65.63
2019-05-11T05:22:51.306Z,65.33
2019-05-11T05:23:51.332Z,65.12
2019-05-11T05:24:51.280Z,65.53
2019-05-11T05:25:51.275Z,65.39
2019-05-11T05:26:51.264Z,65.02
2019-05-11T05:27:51.285Z,64.79
2019-05-11T05:28:51.305Z,64.89
2019-05-11T05:29:51.225Z,65.09
2019-05-11T05:30:51.217Z,65.39
2019-05-11T05:31:51.206Z,65.60
2019-05-11T05:32:51.191Z,65.50
2019-05-11T05:33:51.187Z,65.30
2019-05-11T05:34:51.200Z,64.99
2019-05-11T05:35:51.164Z,64.96
2019-05-11T05:36:51.148Z,65.36
2019-05-11T05:37:51.145Z,64.76
2019-05-11T05:38:51.132Z,65.60
2019-05-11T05:39:51.168Z,64.99
2019-05-11T05:40:51.110Z,65.26
2019-05-11T05:41:57.025Z,65.47
2019-05-11T05:42:52.088Z,65.36
2019-05-11T05:43:51.071Z,65.16
2019-05-11T05:44:51.103Z,65.16
2019-05-11T05:45:51.100Z,64.25
2019-05-11T05:46:51.048Z,65.36
2019-05-11T05:47:51.035Z,65.36
2019-05-11T05:48:51.024Z,65.36
2019-05-11T05:49:51.067Z,64.83
2019-05-11T05:50:50.997Z,64.22
2019-05-11T05:51:51.001Z,63.30
2019-05-11T05:52:50.977Z,63.40
2019-05-11T05:53:51.000Z,63.40
2019-05-11T05:54:50.953Z,64.73
2019-05-11T05:55:50.942Z,64.42
2019-05-11T05:56:50.928Z,64.73
2019-05-11T05:57:50.929Z,63.10
2019-05-11T05:58:50.914Z,64.62
2019-05-11T05:59:50.923Z,64.15
2019-05-11T06:00:50.897Z,63.40
2019-05-11T06:01:50.881Z,63.71
2019-05-11T06:02:50.887Z,64.01
2019-05-11T06:03:50.895Z,64.52
2019-05-11T06:04:50.847Z,64.73
2019-05-11T06:05:50.952Z,64.32
2019-05-11T06:06:50.847Z,63.51
2019-05-11T06:07:50.817Z,64.32
2019-05-11T06:08:50.802Z,63.71
2019-05-11T06:09:50.824Z,63.30
2019-05-11T06:10:50.787Z,63.10
2019-05-11T06:11:50.773Z,63.30
2019-05-11T06:12:50.766Z,63.20
2019-05-11T06:13:50.745Z,64.09
2019-05-11T06:14:50.784Z,63.58
2019-05-11T06:15:50.726Z,63.14
2019-05-11T06:16:50.712Z,63.04
2019-05-11T06:17:50.710Z,62.20
2019-05-11T06:18:50.709Z,61.49
2019-05-11T06:19:50.730Z,61.18
2019-05-11T06:20:50.676Z,60.65
2019-05-11T06:21:50.663Z,60.31
2019-05-11T06:22:50.651Z,60.21
2019-05-11T06:23:50.645Z,57.17
2019-05-11T06:24:50.678Z,56.29
2019-05-11T06:25:50.621Z,58.62
2019-05-11T06:26:50.611Z,59.30
2019-05-11T06:27:50.596Z,59.33
2019-05-11T06:28:50.617Z,58.62
2019-05-11T06:29:50.580Z,58.09
2019-05-11T06:30:50.629Z,57.88
2019-05-11T06:31:50.583Z,57.68
2019-05-11T06:32:50.545Z,57.28
2019-05-11T06:33:50.538Z,57.37
2019-05-11T06:34:50.521Z,56.64
2019-05-11T06:35:50.506Z,56.13
2019-05-11T06:36:50.531Z,56.57
2019-05-11T06:37:50.503Z,57.24
2019-05-11T06:38:50.511Z,57.35
2019-05-11T06:39:50.510Z,56.54
2019-05-11T06:40:50.483Z,57.15
2019-05-11T06:41:50.493Z,56.23
2019-05-11T06:42:50.435Z,56.34
2019-05-11T06:44:01.163Z,57.35
2019-05-11T06:44:51.415Z,57.04
2019-05-11T06:45:50.400Z,57.15
2019-05-11T06:46:50.431Z,56.74
2019-05-11T06:47:50.386Z,57.04
2019-05-11T06:48:50.367Z,57.35
2019-05-11T06:49:50.361Z,57.04
2019-05-11T06:50:50.364Z,56.31
2019-05-11T06:51:50.396Z,56.82
2019-05-11T06:52:50.333Z,55.90
2019-05-11T06:53:50.340Z,56.01
2019-05-11T06:54:50.307Z,55.68
2019-05-11T06:55:50.295Z,54.97
2019-05-11T06:56:50.290Z,55.47
2019-05-11T06:57:50.340Z,54.86
2019-05-11T06:58:50.260Z,53.63
2019-05-11T06:59:50.249Z,53.93
2019-05-11T07:00:50.240Z,53.22
2019-05-11T07:01:50.243Z,51.17
2019-05-11T07:02:50.255Z,53.30
2019-05-11T07:03:50.212Z,52.89
2019-05-11T07:04:50.201Z,53.30
2019-05-11T07:05:50.184Z,52.28
2019-05-11T07:06:50.189Z,51.88
2019-05-11T07:07:50.196Z,51.28
2019-05-11T07:08:50.155Z,52.06
2019-05-11T07:09:50.150Z,51.25
2019-05-11T07:10:50.786Z,52.26
2019-05-11T07:11:50.167Z,51.53
2019-05-11T07:12:50.113Z,51.23
2019-05-11T07:13:50.138Z,51.43
2019-05-11T07:14:50.095Z,50.62
2019-05-11T07:15:50.085Z,48.90
2019-05-11T07:16:50.071Z,50.62
2019-05-11T07:17:50.095Z,49.30
2019-05-11T07:18:50.047Z,49.10
2019-05-11T07:19:50.034Z,49.13
2019-05-11T07:20:51.053Z,49.13
2019-05-11T07:21:50.031Z,49.51
2019-05-11T07:22:50.050Z,48.27
2019-05-11T07:23:50.000Z,47.42
2019-05-11T07:24:49.996Z,46.14
2019-05-11T07:25:49.970Z,44.17
2019-05-11T07:26:49.961Z,43.92
2019-05-11T07:27:49.968Z,44.02
2019-05-11T07:28:50.040Z,43.42
2019-05-11T07:29:49.946Z,44.12
2019-05-11T07:30:49.936Z,44.12
2019-05-11T07:31:49.905Z,43.62
2019-05-11T07:32:49.894Z,43.62
2019-05-11T07:33:49.910Z,43.40
2019-05-11T07:34:49.911Z,42.68
2019-05-11T07:35:50.848Z,38.90
2019-05-11T07:36:49.856Z,38.31
2019-05-11T07:37:49.848Z,36.02
2019-05-11T07:38:49.866Z,34.53
2019-05-11T07:39:49.822Z,32.56
2019-05-11T07:40:49.809Z,31.31
2019-05-11T07:41:49.804Z,29.77
2019-05-11T07:42:49.796Z,28.72
2019-05-11T07:43:49.779Z,26.81
2019-05-11T07:44:49.788Z,25.81
2019-05-11T07:45:49.768Z,26.01
2019-05-11T07:46:50.786Z,26.39
2019-05-11T07:47:49.748Z,25.59
2019-05-11T07:48:49.993Z,24.19
2019-05-11T07:49:49.993Z,24.17
2019-05-11T07:50:49.753Z,24.95
2019-05-11T07:51:49.709Z,24.04
2019-05-11T07:52:49.740Z,23.74
2019-05-11T07:53:49.683Z,23.22
2019-05-11T07:54:52.833Z,23.32
2019-05-11T07:55:50.862Z,23.60
2019-05-11T07:56:49.660Z,22.05
2019-05-11T07:57:50.211Z,22.91
2019-05-11T07:58:50.300Z,22.99
2019-05-11T07:59:49.712Z,22.28
2019-05-11T08:00:50.426Z,21.78
2019-05-11T08:01:49.640Z,21.08
2019-05-11T08:02:49.639Z,21.26
2019-05-11T08:03:49.576Z,21.45
2019-05-11T08:04:49.683Z,20.90
2019-05-11T08:05:49.612Z,21.68
2019-05-11T08:06:49.586Z,21.95
2019-05-11T08:07:49.544Z,20.96
2019-05-11T08:08:49.537Z,20.57
2019-05-11T08:09:49.519Z,20.66
2019-05-11T08:10:49.531Z,20.75
2019-05-11T08:11:49.583Z,20.64
2019-05-11T08:12:49.516Z,20.64
2019-05-11T08:13:49.498Z,20.24
2019-05-11T08:15:00.844Z,19.94
2019-05-11T08:15:50.471Z,19.54
2019-05-11T08:16:49.548Z,19.14
2019-05-11T08:17:49.452Z,18.94
2019-05-11T08:18:49.493Z,19.23
2019-05-11T08:19:49.436Z,18.07
2019-05-11T08:20:49.579Z,18.70
2019-05-11T08:21:49.454Z,19.24
2019-05-11T08:22:49.404Z,20.36
2019-05-11T08:23:49.400Z,21.09
2019-05-11T08:24:49.426Z,22.85
2019-05-11T08:25:49.393Z,22.37
2019-05-11T08:26:49.449Z,21.66
2019-05-11T08:27:49.925Z,22.02
2019-05-11T08:28:49.372Z,21.12
2019-05-11T08:29:49.366Z,20.80
2019-05-11T08:30:49.329Z,20.58
2019-05-11T08:31:49.414Z,19.70
2019-05-11T08:32:49.587Z,19.12
2019-05-11T08:33:49.346Z,19.15
2019-05-11T08:34:49.316Z,20.70
2019-05-11T08:35:49.466Z,20.00
2019-05-11T08:36:49.329Z,20.18
2019-05-11T08:37:49.314Z,18.99
2019-05-11T08:38:49.353Z,18.96
2019-05-11T08:39:49.256Z,18.08
2019-05-11T08:40:49.247Z,17.38
2019-05-11T08:41:49.234Z,17.47
2019-05-11T08:42:49.227Z,16.81
2019-05-11T08:43:49.261Z,18.35
2019-05-11T08:44:49.204Z,18.64
2019-05-11T08:45:49.207Z,18.04
2019-05-11T08:46:49.219Z,18.02
2019-05-11T08:47:49.306Z,17.32
2019-05-11T08:48:49.239Z,16.54
2019-05-11T08:49:49.167Z,17.11
2019-05-11T08:50:49.160Z,16.83
2019-05-11T08:51:49.151Z,16.18
2019-05-11T08:52:49.233Z,16.86
2019-05-11T08:53:49.233Z,16.76
2019-05-11T08:54:49.119Z,16.86
2019-05-11T08:55:49.163Z,16.79
2019-05-11T08:56:49.110Z,17.40
2019-05-11T08:57:49.101Z,17.30
2019-05-11T08:58:49.547Z,17.62
2019-05-11T08:59:49.177Z,19.00
2019-05-11T09:00:49.287Z,17.94
2019-05-11T09:01:49.224Z,19.26
2019-05-11T09:02:50.789Z,20.27
2019-05-11T09:03:49.048Z,20.39
2019-05-11T09:04:49.046Z,21.31
2019-05-11T09:05:49.162Z,22.56
2019-05-11T09:06:49.125Z,23.69
2019-05-11T09:07:49.028Z,24.91
2019-05-11T09:08:49.498Z,26.10
2019-05-11T09:09:49.001Z,26.17
2019-05-11T09:10:49.318Z,25.22
2019-05-11T09:11:49.047Z,23.72
2019-05-11T09:12:49.085Z,22.60
2019-05-11T09:13:49.131Z,21.92
2019-05-11T09:14:51.909Z,23.13
2019-05-11T09:15:48.960Z,23.73
2019-05-11T09:16:49.096Z,23.43
2019-05-11T09:17:48.990Z,23.93
2019-05-11T09:18:48.914Z,25.03
2019-05-11T09:19:48.919Z,24.63
2019-05-11T09:20:48.930Z,25.13
2019-05-11T09:21:48.877Z,24.84
2019-05-11T09:22:48.871Z,25.05
2019-05-11T09:23:48.920Z,25.07
2019-05-11T09:24:48.848Z,24.98
2019-05-11T09:25:48.910Z,25.91
2019-05-11T09:26:48.842Z,26.40
2019-05-11T09:27:48.869Z,24.55
2019-05-11T09:28:48.803Z,26.81
2019-05-11T09:29:49.334Z,25.45
2019-05-11T09:30:48.822Z,27.03
2019-05-11T09:31:48.845Z,26.82
2019-05-11T09:32:48.797Z,26.12
2019-05-11T09:33:49.029Z,27.14
2019-05-11T09:34:48.767Z,26.53
2019-05-11T09:35:53.014Z,26.13
2019-05-11T09:36:48.849Z,26.92
2019-05-11T09:37:48.787Z,25.85
2019-05-11T09:38:49.168Z,26.25
2019-05-11T09:39:48.693Z,26.45
2019-05-11T09:40:49.151Z,27.86
2019-05-11T09:41:48.966Z,26.79
2019-05-11T09:42:48.679Z,28.30
2019-05-11T09:43:49.443Z,28.22
2019-05-11T09:44:48.714Z,28.74
2019-05-11T09:45:52.019Z,30.07
2019-05-11T09:46:48.759Z,30.28
2019-05-11T09:47:48.647Z,30.52
2019-05-11T09:48:48.666Z,30.46
2019-05-11T09:49:51.110Z,32.82
2019-05-11T09:50:48.609Z,34.14
2019-05-11T09:51:49.174Z,34.58
2019-05-11T09:52:49.190Z,34.09
2019-05-11T09:53:48.862Z,35.43
2019-05-11T09:54:48.901Z,37.13
2019-05-11T09:55:49.478Z,37.44
2019-05-11T09:56:48.789Z,37.24
2019-05-11T09:57:48.870Z,37.32
2019-05-11T09:58:48.553Z,34.73
2019-05-11T09:59:48.682Z,36.23
2019-05-11T10:00:49.346Z,35.93
2019-05-11T10:01:48.667Z,35.55
2019-05-11T10:02:48.894Z,36.18
2019-05-11T10:03:48.510Z,36.58
2019-05-11T10:04:49.386Z,36.80
2019-05-11T10:05:48.782Z,37.41
2019-05-11T10:06:48.455Z,37.30
2019-05-11T10:07:48.637Z,37.02
2019-05-11T10:08:48.899Z,38.05
2019-05-11T10:09:48.374Z,38.13
2019-05-11T10:10:48.915Z,39.03
2019-05-11T10:11:48.460Z,38.03
2019-05-11T10:12:48.963Z,37.73
2019-05-11T10:13:48.339Z,38.23
2019-05-11T10:14:48.718Z,38.31
2019-05-11T10:16:03.479Z,38.31
2019-05-11T10:16:49.616Z,37.30
2019-05-11T10:17:48.499Z,37.99
2019-05-11T10:18:49.143Z,37.98
2019-05-11T10:19:49.681Z,37.19
2019-05-11T10:20:48.333Z,38.58
2019-05-11T10:21:48.769Z,37.47
2019-05-11T10:22:48.779Z,36.79
2019-05-11T10:23:54.934Z,38.49
2019-05-11T10:24:48.330Z,38.07
2019-05-11T10:25:48.258Z,37.57
2019-05-11T10:26:48.859Z,38.18
2019-05-11T10:27:49.032Z,38.68
2019-05-11T10:28:48.478Z,37.35
2019-05-11T10:29:48.554Z,38.26
2019-05-11T10:30:48.688Z,36.85
2019-05-11T10:31:48.259Z,36.67
2019-05-11T10:32:48.859Z,37.07
2019-05-11T10:33:48.868Z,38.07
2019-05-11T10:34:48.128Z,37.98
2019-05-11T10:35:48.435Z,37.67
2019-05-11T10:36:48.776Z,37.96
2019-05-11T10:37:48.128Z,37.65
2019-05-11T10:38:48.821Z,37.26
2019-05-11T10:39:48.840Z,37.76
2019-05-11T10:40:48.218Z,37.35
2019-05-11T10:41:48.183Z,37.44
2019-05-11T10:42:48.508Z,38.44
2019-05-11T10:43:48.879Z,36.83
2019-05-11T10:44:48.190Z,36.55
2019-05-11T10:45:48.485Z,37.85
2019-05-11T10:46:48.403Z,37.29
2019-05-11T10:47:48.922Z,37.99
2019-05-11T10:48:48.484Z,38.09
2019-05-11T10:49:48.604Z,38.07
2019-05-11T10:50:48.862Z,38.07
2019-05-11T10:51:48.643Z,37.87
2019-05-11T10:52:48.495Z,38.48
2019-05-11T10:53:51.631Z,38.96
2019-05-11T10:54:48.012Z,38.86
2019-05-11T10:55:48.106Z,39.34
2019-05-11T10:56:48.226Z,39.75
2019-05-11T10:57:48.733Z,37.74
2019-05-11T10:58:48.384Z,38.32
2019-05-11T10:59:48.880Z,38.32
2019-05-11T11:00:48.157Z,38.22
2019-05-11T11:01:48.451Z,38.42
2019-05-11T11:02:47.838Z,38.42
2019-05-11T11:03:48.470Z,38.10
2019-05-11T11:04:48.577Z,36.41
2019-05-11T11:05:48.751Z,37.24
2019-05-11T11:06:48.533Z,37.94
2019-05-11T11:07:48.363Z,38.24
2019-05-11T11:08:48.645Z,38.44
2019-05-11T11:09:49.058Z,37.74
2019-05-11T11:10:48.392Z,37.84
2019-05-11T11:11:48.868Z,37.44
2019-05-11T11:12:48.930Z,38.44
2019-05-11T11:13:48.215Z,38.06
2019-05-11T11:14:48.281Z,37.15
2019-05-11T11:15:48.515Z,37.96
2019-05-11T11:16:48.027Z,38.76
2019-05-11T11:17:48.574Z,37.55
2019-05-11T11:18:48.548Z,37.96
2019-05-11T11:19:48.660Z,39.36
2019-05-11T11:20:48.849Z,38.86
2019-05-11T11:21:48.727Z,38.06
2019-05-11T11:22:48.287Z,37.67
2019-05-11T11:23:48.135Z,38.29
2019-05-11T11:24:48.175Z,37.89
2019-05-11T11:25:48.190Z,39.01
2019-05-11T11:26:48.621Z,38.51
2019-05-11T11:27:48.688Z,39.01
2019-05-11T11:28:47.860Z,39.01
2019-05-11T11:29:47.653Z,40.12
2019-05-11T11:30:48.138Z,39.23
2019-05-11T11:31:48.141Z,39.94
2019-05-11T11:32:48.240Z,40.84
2019-05-11T11:33:48.877Z,41.45
2019-05-11T11:34:48.519Z,40.44
2019-05-11T11:35:47.790Z,39.74
2019-05-11T11:36:48.150Z,40.33
2019-05-11T11:37:47.980Z,40.33
2019-05-11T11:38:48.064Z,39.32
2019-05-11T11:39:47.693Z,40.34
2019-05-11T11:40:48.158Z,40.24
2019-05-11T11:41:48.563Z,40.22
2019-05-11T11:42:47.938Z,38.83
2019-05-11T11:43:48.362Z,40.34
2019-05-11T11:44:48.391Z,41.65
2019-05-11T11:45:48.405Z,41.55
2019-05-11T11:46:54.710Z,41.45
2019-05-11T11:47:49.295Z,41.35
2019-05-11T11:48:48.845Z,40.95
2019-05-11T11:49:47.662Z,42.66
2019-05-11T11:50:48.077Z,42.66
2019-05-11T11:51:48.418Z,42.66
2019-05-11T11:52:47.773Z,41.15
2019-05-11T11:53:47.955Z,40.64
2019-05-11T11:54:47.955Z,41.95
2019-05-11T11:55:48.206Z,41.15
2019-05-11T11:56:48.551Z,41.17
2019-05-11T11:57:48.998Z,41.57
2019-05-11T11:58:48.883Z,42.07
2019-05-11T11:59:48.120Z,42.07
2019-05-11T12:00:48.186Z,42.66
2019-05-11T12:01:48.731Z,42.05
2019-05-11T12:02:48.743Z,42.15
2019-05-11T12:03:48.819Z,41.33
2019-05-11T12:04:48.613Z,43.24
2019-05-11T12:05:47.684Z,43.24
2019-05-11T12:06:49.053Z,43.44
2019-05-11T12:07:49.001Z,43.04
2019-05-11T12:08:49.650Z,42.64
2019-05-11T12:09:48.392Z,43.24
2019-05-11T12:10:48.463Z,41.33
2019-05-11T12:11:48.607Z,41.83
2019-05-11T12:12:47.655Z,42.44
2019-05-11T12:13:47.607Z,42.54
2019-05-11T12:14:47.986Z,42.84
2019-05-11T12:15:48.271Z,42.84
2019-05-11T12:16:47.931Z,43.04
2019-05-11T12:17:48.387Z,42.13
2019-05-11T12:18:48.623Z,42.64
2019-05-11T12:19:47.787Z,42.13
2019-05-11T12:20:48.055Z,42.74
2019-05-11T12:21:48.423Z,42.54
2019-05-11T12:22:47.617Z,43.44
2019-05-11T12:23:48.553Z,41.85
2019-05-11T12:24:48.243Z,43.96
2019-05-11T12:25:48.621Z,44.17
2019-05-11T12:26:47.991Z,44.07
2019-05-11T12:27:49.022Z,44.19
2019-05-11T12:28:49.002Z,45.19
2019-05-11T12:29:47.758Z,44.49
2019-05-11T12:30:48.164Z,45.19
2019-05-11T12:31:48.481Z,46.00
2019-05-11T12:32:48.809Z,45.59
2019-05-11T12:33:48.192Z,45.50
2019-05-11T12:34:48.214Z,45.90
2019-05-11T12:35:48.123Z,47.91
2019-05-11T12:36:47.964Z,47.41
2019-05-11T12:37:48.461Z,47.51
2019-05-11T12:38:48.809Z,47.83
2019-05-11T12:39:47.863Z,48.41
2019-05-11T12:40:47.722Z,48.74
2019-05-11T12:41:47.963Z,48.52
2019-05-11T12:42:48.899Z,48.54
2019-05-11T12:43:48.924Z,48.14
2019-05-11T12:44:48.177Z,47.94
2019-05-11T12:45:48.162Z,47.43
2019-05-11T12:46:48.876Z,47.63
2019-05-11T12:47:47.999Z,48.54
2019-05-11T12:48:48.485Z,45.52
2019-05-11T12:49:48.404Z,46.34
2019-05-11T12:50:48.484Z,46.37
2019-05-11T12:51:48.796Z,48.99
2019-05-11T12:52:47.650Z,48.99